sensor_id;sensor_type;location;lat;lon;timestamp;P1;durP1;ratioP1;P2;durP2;ratioP2
46941;SDS011;32676;52.630;4.896;2024-03-29T00:00:14;3.00;;;0.70;;
46941;SDS011;32676;52.630;4.896;2024-03-29T00:02:41;11.18;;;1.15;;
46941;SDS011;32676;52.630;4.896;2024-03-29T00:05:07;7.25;;;1.25;;
46941;SDS011;32676;52.630;4.896;2024-03-29T00:07:33;9.85;;;1.35;;
46941;SDS011;32676;52.630;4.896;2024-03-29T00:10:01;4.85;;;1.23;;
46941;SDS011;32676;52.630;4.896;2024-03-29T00:12:27;8.75;;;1.67;;
46941;SDS011;32676;52.630;4.896;2024-03-29T00:14:53;9.40;;;1.70;;
46941;SDS011;32676;52.630;4.896;2024-03-29T00:17:18;8.93;;;0.80;;
46941;SDS011;32676;52.630;4.896;2024-03-29T00:19:44;17.50;;;1.25;;
46941;SDS011;32676;52.630;4.896;2024-03-29T00:22:10;13.95;;;1.17;;
46941;SDS011;32676;52.630;4.896;2024-03-29T00:24:35;5.28;;;0.88;;
46941;SDS011;32676;52.630;4.896;2024-03-29T00:27:02;5.72;;;1.20;;
46941;SDS011;32676;52.630;4.896;2024-03-29T00:29:28;15.75;;;1.65;;
46941;SDS011;32676;52.630;4.896;2024-03-29T00:31:54;7.25;;;1.10;;
46941;SDS011;32676;52.630;4.896;2024-03-29T00:34:20;4.85;;;1.10;;
46941;SDS011;32676;52.630;4.896;2024-03-29T00:36:45;6.85;;;1.02;;
46941;SDS011;32676;52.630;4.896;2024-03-29T00:39:11;9.05;;;1.50;;
46941;SDS011;32676;52.630;4.896;2024-03-29T00:41:37;9.70;;;1.23;;
46941;SDS011;32676;52.630;4.896;2024-03-29T00:44:04;4.85;;;0.90;;
46941;SDS011;32676;52.630;4.896;2024-03-29T00:46:30;12.50;;;1.58;;
46941;SDS011;32676;52.630;4.896;2024-03-29T00:48:55;13.25;;;2.10;;
46941;SDS011;32676;52.630;4.896;2024-03-29T00:51:21;16.42;;;1.17;;
46941;SDS011;32676;52.630;4.896;2024-03-29T00:53:47;8.20;;;1.65;;
46941;SDS011;32676;52.630;4.896;2024-03-29T00:56:12;8.02;;;1.10;;
46941;SDS011;32676;52.630;4.896;2024-03-29T00:58:40;9.02;;;1.35;;
46941;SDS011;32676;52.630;4.896;2024-03-29T01:01:07;8.05;;;1.20;;
46941;SDS011;32676;52.630;4.896;2024-03-29T01:03:33;10.52;;;0.98;;
46941;SDS011;32676;52.630;4.896;2024-03-29T01:05:58;6.07;;;1.00;;
46941;SDS011;32676;52.630;4.896;2024-03-29T01:08:24;7.75;;;1.80;;
46941;SDS011;32676;52.630;4.896;2024-03-29T01:10:50;8.15;;;0.95;;
46941;SDS011;32676;52.630;4.896;2024-03-29T01:13:15;5.00;;;0.80;;
46941;SDS011;32676;52.630;4.896;2024-03-29T01:15:41;12.60;;;1.40;;
46941;SDS011;32676;52.630;4.896;2024-03-29T01:18:08;14.40;;;2.35;;
46941;SDS011;32676;52.630;4.896;2024-03-29T01:20:34;10.88;;;1.60;;
46941;SDS011;32676;52.630;4.896;2024-03-29T01:22:59;11.23;;;1.13;;
46941;SDS011;32676;52.630;4.896;2024-03-29T01:25:25;8.48;;;1.13;;
46941;SDS011;32676;52.630;4.896;2024-03-29T01:27:51;12.02;;;1.98;;
46941;SDS011;32676;52.630;4.896;2024-03-29T01:30:16;11.02;;;1.17;;
46941;SDS011;32676;52.630;4.896;2024-03-29T01:32:42;6.68;;;1.00;;
46941;SDS011;32676;52.630;4.896;2024-03-29T01:35:09;15.88;;;1.60;;
46941;SDS011;32676;52.630;4.896;2024-03-29T01:37:35;8.63;;;0.93;;
46941;SDS011;32676;52.630;4.896;2024-03-29T01:40:01;4.88;;;0.95;;
46941;SDS011;32676;52.630;4.896;2024-03-29T01:42:26;7.75;;;1.45;;
46941;SDS011;32676;52.630;4.896;2024-03-29T01:44:52;3.80;;;0.85;;
46941;SDS011;32676;52.630;4.896;2024-03-29T01:47:19;4.60;;;0.70;;
46941;SDS011;32676;52.630;4.896;2024-03-29T01:49:46;7.68;;;1.70;;
46941;SDS011;32676;52.630;4.896;2024-03-29T01:52:14;5.75;;;0.70;;
46941;SDS011;32676;52.630;4.896;2024-03-29T01:54:42;13.50;;;2.08;;
46941;SDS011;32676;52.630;4.896;2024-03-29T01:57:10;7.63;;;0.70;;
46941;SDS011;32676;52.630;4.896;2024-03-29T01:59:38;9.45;;;1.10;;
46941;SDS011;32676;52.630;4.896;2024-03-29T02:02:06;5.60;;;1.20;;
46941;SDS011;32676;52.630;4.896;2024-03-29T02:04:34;10.43;;;1.15;;
46941;SDS011;32676;52.630;4.896;2024-03-29T02:07:01;5.05;;;0.70;;
46941;SDS011;32676;52.630;4.896;2024-03-29T02:09:30;8.13;;;1.95;;
46941;SDS011;32676;52.630;4.896;2024-03-29T02:11:57;4.25;;;0.95;;
46941;SDS011;32676;52.630;4.896;2024-03-29T02:14:24;7.82;;;1.23;;
46941;SDS011;32676;52.630;4.896;2024-03-29T02:16:49;8.32;;;0.90;;
46941;SDS011;32676;52.630;4.896;2024-03-29T02:19:16;6.13;;;1.05;;
46941;SDS011;32676;52.630;4.896;2024-03-29T02:21:43;4.90;;;0.57;;
46941;SDS011;32676;52.630;4.896;2024-03-29T02:24:15;7.78;;;1.45;;
46941;SDS011;32676;52.630;4.896;2024-03-29T02:26:42;8.73;;;1.75;;
46941;SDS011;32676;52.630;4.896;2024-03-29T02:29:10;9.82;;;0.98;;
46941;SDS011;32676;52.630;4.896;2024-03-29T02:31:37;16.23;;;1.10;;
46941;SDS011;32676;52.630;4.896;2024-03-29T02:34:04;5.88;;;1.17;;
46941;SDS011;32676;52.630;4.896;2024-03-29T02:36:32;8.00;;;0.95;;
46941;SDS011;32676;52.630;4.896;2024-03-29T02:38:59;6.32;;;1.63;;
46941;SDS011;32676;52.630;4.896;2024-03-29T02:41:26;6.07;;;1.85;;
46941;SDS011;32676;52.630;4.896;2024-03-29T02:43:55;8.13;;;1.33;;
46941;SDS011;32676;52.630;4.896;2024-03-29T02:46:22;7.15;;;0.88;;
46941;SDS011;32676;52.630;4.896;2024-03-29T02:48:48;5.13;;;1.17;;
46941;SDS011;32676;52.630;4.896;2024-03-29T02:51:14;10.93;;;1.08;;
46941;SDS011;32676;52.630;4.896;2024-03-29T02:53:40;6.05;;;1.00;;
46941;SDS011;32676;52.630;4.896;2024-03-29T02:56:06;15.38;;;1.25;;
46941;SDS011;32676;52.630;4.896;2024-03-29T02:58:34;12.05;;;1.77;;
46941;SDS011;32676;52.630;4.896;2024-03-29T03:01:04;8.38;;;1.65;;
46941;SDS011;32676;52.630;4.896;2024-03-29T03:03:31;9.60;;;1.67;;
46941;SDS011;32676;52.630;4.896;2024-03-29T03:05:57;11.45;;;2.15;;
46941;SDS011;32676;52.630;4.896;2024-03-29T03:08:24;11.15;;;0.65;;
46941;SDS011;32676;52.630;4.896;2024-03-29T03:11:08;7.43;;;1.10;;
46941;SDS011;32676;52.630;4.896;2024-03-29T03:13:36;16.55;;;1.10;;
46941;SDS011;32676;52.630;4.896;2024-03-29T03:16:03;14.85;;;1.23;;
46941;SDS011;32676;52.630;4.896;2024-03-29T03:18:30;8.32;;;0.93;;
46941;SDS011;32676;52.630;4.896;2024-03-29T03:20:56;16.17;;;1.67;;
46941;SDS011;32676;52.630;4.896;2024-03-29T03:23:23;8.80;;;1.10;;
46941;SDS011;32676;52.630;4.896;2024-03-29T03:25:53;11.77;;;3.17;;
46941;SDS011;32676;52.630;4.896;2024-03-29T03:28:20;10.32;;;2.22;;
46941;SDS011;32676;52.630;4.896;2024-03-29T03:30:48;3.45;;;1.20;;
46941;SDS011;32676;52.630;4.896;2024-03-29T03:33:14;11.40;;;1.25;;
46941;SDS011;32676;52.630;4.896;2024-03-29T03:35:41;12.93;;;3.08;;
46941;SDS011;32676;52.630;4.896;2024-03-29T03:38:07;10.38;;;1.27;;
46941;SDS011;32676;52.630;4.896;2024-03-29T03:40:33;11.13;;;2.95;;
46941;SDS011;32676;52.630;4.896;2024-03-29T03:43:00;7.72;;;1.10;;
46941;SDS011;32676;52.630;4.896;2024-03-29T03:45:26;5.55;;;1.40;;
46941;SDS011;32676;52.630;4.896;2024-03-29T03:47:54;6.85;;;1.45;;
46941;SDS011;32676;52.630;4.896;2024-03-29T03:50:19;9.15;;;2.83;;
46941;SDS011;32676;52.630;4.896;2024-03-29T03:52:46;8.63;;;1.80;;
46941;SDS011;32676;52.630;4.896;2024-03-29T03:55:12;10.20;;;1.92;;
46941;SDS011;32676;52.630;4.896;2024-03-29T03:57:38;11.63;;;3.60;;
46941;SDS011;32676;52.630;4.896;2024-03-29T04:00:04;7.80;;;2.55;;
46941;SDS011;32676;52.630;4.896;2024-03-29T04:02:32;12.00;;;2.70;;
46941;SDS011;32676;52.630;4.896;2024-03-29T04:04:58;12.68;;;2.13;;
46941;SDS011;32676;52.630;4.896;2024-03-29T04:07:25;11.25;;;1.67;;
46941;SDS011;32676;52.630;4.896;2024-03-29T04:09:51;6.93;;;0.95;;
46941;SDS011;32676;52.630;4.896;2024-03-29T04:12:19;12.32;;;0.93;;
46941;SDS011;32676;52.630;4.896;2024-03-29T04:14:44;14.63;;;3.22;;
46941;SDS011;32676;52.630;4.896;2024-03-29T04:17:11;7.20;;;1.15;;
46941;SDS011;32676;52.630;4.896;2024-03-29T04:19:37;5.18;;;1.15;;
46941;SDS011;32676;52.630;4.896;2024-03-29T04:22:07;4.93;;;0.70;;
46941;SDS011;32676;52.630;4.896;2024-03-29T04:24:32;4.38;;;0.73;;
46941;SDS011;32676;52.630;4.896;2024-03-29T04:26:59;7.03;;;0.90;;
46941;SDS011;32676;52.630;4.896;2024-03-29T04:29:25;4.40;;;0.85;;
46941;SDS011;32676;52.630;4.896;2024-03-29T04:31:51;14.60;;;1.92;;
46941;SDS011;32676;52.630;4.896;2024-03-29T04:34:17;8.18;;;0.73;;
46941;SDS011;32676;52.630;4.896;2024-03-29T04:36:43;4.50;;;0.88;;
46941;SDS011;32676;52.630;4.896;2024-03-29T04:39:11;4.15;;;0.50;;
46941;SDS011;32676;52.630;4.896;2024-03-29T04:41:38;5.28;;;0.70;;
46941;SDS011;32676;52.630;4.896;2024-03-29T04:44:04;4.68;;;1.65;;
46941;SDS011;32676;52.630;4.896;2024-03-29T04:46:33;9.30;;;0.90;;
46941;SDS011;32676;52.630;4.896;2024-03-29T04:48:59;4.63;;;0.80;;
46941;SDS011;32676;52.630;4.896;2024-03-29T04:51:26;9.77;;;1.05;;
46941;SDS011;32676;52.630;4.896;2024-03-29T04:53:52;6.40;;;1.02;;
46941;SDS011;32676;52.630;4.896;2024-03-29T04:56:20;4.55;;;0.80;;
46941;SDS011;32676;52.630;4.896;2024-03-29T04:58:47;9.65;;;1.58;;
46941;SDS011;32676;52.630;4.896;2024-03-29T05:01:13;7.18;;;1.35;;
46941;SDS011;32676;52.630;4.896;2024-03-29T05:03:40;4.13;;;1.20;;
46941;SDS011;32676;52.630;4.896;2024-03-29T05:06:07;5.60;;;1.52;;
46941;SDS011;32676;52.630;4.896;2024-03-29T05:08:34;12.25;;;1.73;;
46941;SDS011;32676;52.630;4.896;2024-03-29T05:11:01;8.27;;;2.03;;
46941;SDS011;32676;52.630;4.896;2024-03-29T05:13:29;6.28;;;0.65;;
46941;SDS011;32676;52.630;4.896;2024-03-29T05:15:57;6.18;;;0.80;;
46941;SDS011;32676;52.630;4.896;2024-03-29T05:18:23;2.78;;;0.70;;
46941;SDS011;32676;52.630;4.896;2024-03-29T05:20:50;5.70;;;0.73;;
46941;SDS011;32676;52.630;4.896;2024-03-29T05:23:16;2.53;;;0.60;;
46941;SDS011;32676;52.630;4.896;2024-03-29T05:25:43;7.82;;;1.13;;
46941;SDS011;32676;52.630;4.896;2024-03-29T05:28:10;12.30;;;2.13;;
46941;SDS011;32676;52.630;4.896;2024-03-29T05:30:38;5.57;;;1.00;;
46941;SDS011;32676;52.630;4.896;2024-03-29T05:33:04;5.05;;;0.80;;
46941;SDS011;32676;52.630;4.896;2024-03-29T05:35:31;3.60;;;0.60;;
46941;SDS011;32676;52.630;4.896;2024-03-29T05:37:58;5.00;;;1.35;;
46941;SDS011;32676;52.630;4.896;2024-03-29T05:40:25;2.65;;;0.50;;
46941;SDS011;32676;52.630;4.896;2024-03-29T05:42:52;4.65;;;0.52;;
46941;SDS011;32676;52.630;4.896;2024-03-29T05:45:23;4.88;;;0.70;;
46941;SDS011;32676;52.630;4.896;2024-03-29T05:47:53;4.00;;;0.70;;
46941;SDS011;32676;52.630;4.896;2024-03-29T05:50:20;6.75;;;1.55;;
46941;SDS011;32676;52.630;4.896;2024-03-29T05:52:48;3.38;;;0.60;;
46941;SDS011;32676;52.630;4.896;2024-03-29T05:55:15;5.38;;;0.90;;
46941;SDS011;32676;52.630;4.896;2024-03-29T05:57:41;3.00;;;0.65;;
46941;SDS011;32676;52.630;4.896;2024-03-29T06:00:10;5.88;;;1.15;;
46941;SDS011;32676;52.630;4.896;2024-03-29T06:02:38;2.78;;;0.55;;
46941;SDS011;32676;52.630;4.896;2024-03-29T06:05:07;8.63;;;2.13;;
46941;SDS011;32676;52.630;4.896;2024-03-29T06:07:34;6.85;;;0.98;;
46941;SDS011;32676;52.630;4.896;2024-03-29T06:10:01;2.42;;;1.00;;
46941;SDS011;32676;52.630;4.896;2024-03-29T06:12:30;2.65;;;0.47;;
46941;SDS011;32676;52.630;4.896;2024-03-29T06:14:57;6.25;;;0.70;;
46941;SDS011;32676;52.630;4.896;2024-03-29T06:17:42;5.27;;;0.70;;
46941;SDS011;32676;52.630;4.896;2024-03-29T06:20:11;2.53;;;0.40;;
46941;SDS011;32676;52.630;4.896;2024-03-29T06:22:38;3.92;;;0.60;;
46941;SDS011;32676;52.630;4.896;2024-03-29T06:25:05;2.35;;;0.52;;
46941;SDS011;32676;52.630;4.896;2024-03-29T06:27:32;1.27;;;0.32;;
46941;SDS011;32676;52.630;4.896;2024-03-29T06:29:59;1.83;;;0.22;;
46941;SDS011;32676;52.630;4.896;2024-03-29T06:32:25;3.60;;;0.30;;
46941;SDS011;32676;52.630;4.896;2024-03-29T06:34:52;1.88;;;0.50;;
46941;SDS011;32676;52.630;4.896;2024-03-29T06:37:20;3.38;;;0.47;;
46941;SDS011;32676;52.630;4.896;2024-03-29T06:39:47;1.60;;;0.20;;
46941;SDS011;32676;52.630;4.896;2024-03-29T06:42:14;4.65;;;0.40;;
46941;SDS011;32676;52.630;4.896;2024-03-29T06:44:41;1.38;;;0.40;;
46941;SDS011;32676;52.630;4.896;2024-03-29T06:47:07;2.70;;;0.20;;
46941;SDS011;32676;52.630;4.896;2024-03-29T06:49:33;2.05;;;0.32;;
46941;SDS011;32676;52.630;4.896;2024-03-29T06:52:00;2.25;;;0.60;;
46941;SDS011;32676;52.630;4.896;2024-03-29T06:54:28;1.20;;;0.30;;
46941;SDS011;32676;52.630;4.896;2024-03-29T06:56:55;1.75;;;0.28;;
46941;SDS011;32676;52.630;4.896;2024-03-29T06:59:22;1.92;;;0.10;;
46941;SDS011;32676;52.630;4.896;2024-03-29T07:01:49;2.80;;;1.00;;
46941;SDS011;32676;52.630;4.896;2024-03-29T07:04:17;0.98;;;0.28;;
46941;SDS011;32676;52.630;4.896;2024-03-29T07:06:44;0.70;;;0.28;;
46941;SDS011;32676;52.630;4.896;2024-03-29T07:09:13;2.47;;;0.40;;
46941;SDS011;32676;52.630;4.896;2024-03-29T07:11:41;1.52;;;0.50;;
46941;SDS011;32676;52.630;4.896;2024-03-29T07:14:07;1.33;;;0.38;;
46941;SDS011;32676;52.630;4.896;2024-03-29T07:16:34;1.65;;;0.30;;
46941;SDS011;32676;52.630;4.896;2024-03-29T07:19:01;2.35;;;0.20;;
46941;SDS011;32676;52.630;4.896;2024-03-29T07:21:28;1.70;;;0.93;;
46941;SDS011;32676;52.630;4.896;2024-03-29T07:23:54;2.33;;;0.40;;
46941;SDS011;32676;52.630;4.896;2024-03-29T07:26:21;1.85;;;0.35;;
46941;SDS011;32676;52.630;4.896;2024-03-29T07:28:49;2.17;;;0.30;;
46941;SDS011;32676;52.630;4.896;2024-03-29T07:31:15;4.75;;;0.35;;
46941;SDS011;32676;52.630;4.896;2024-03-29T07:33:42;1.92;;;0.30;;
46941;SDS011;32676;52.630;4.896;2024-03-29T07:36:09;0.30;;;0.10;;
46941;SDS011;32676;52.630;4.896;2024-03-29T07:38:36;2.05;;;0.40;;
46941;SDS011;32676;52.630;4.896;2024-03-29T07:41:03;5.80;;;0.80;;
46941;SDS011;32676;52.630;4.896;2024-03-29T07:43:37;1.75;;;0.20;;
46941;SDS011;32676;52.630;4.896;2024-03-29T07:46:06;4.35;;;0.28;;
46941;SDS011;32676;52.630;4.896;2024-03-29T07:48:34;4.55;;;0.32;;
46941;SDS011;32676;52.630;4.896;2024-03-29T07:51:00;2.80;;;0.60;;
46941;SDS011;32676;52.630;4.896;2024-03-29T07:53:27;3.97;;;0.47;;
46941;SDS011;32676;52.630;4.896;2024-03-29T07:55:53;3.85;;;0.30;;
46941;SDS011;32676;52.630;4.896;2024-03-29T07:58:20;2.60;;;0.40;;
46941;SDS011;32676;52.630;4.896;2024-03-29T08:00:47;2.38;;;0.30;;
46941;SDS011;32676;52.630;4.896;2024-03-29T08:03:15;2.00;;;0.38;;
46941;SDS011;32676;52.630;4.896;2024-03-29T08:05:42;2.83;;;1.20;;
46941;SDS011;32676;52.630;4.896;2024-03-29T08:08:09;1.30;;;0.20;;
46941;SDS011;32676;52.630;4.896;2024-03-29T08:10:35;4.82;;;0.20;;
46941;SDS011;32676;52.630;4.896;2024-03-29T08:13:02;0.73;;;0.20;;
46941;SDS011;32676;52.630;4.896;2024-03-29T08:15:29;3.13;;;0.50;;
46941;SDS011;32676;52.630;4.896;2024-03-29T08:17:55;3.53;;;0.30;;
46941;SDS011;32676;52.630;4.896;2024-03-29T08:20:23;4.03;;;1.20;;
46941;SDS011;32676;52.630;4.896;2024-03-29T08:22:54;0.70;;;0.20;;
46941;SDS011;32676;52.630;4.896;2024-03-29T08:25:23;1.02;;;0.20;;
46941;SDS011;32676;52.630;4.896;2024-03-29T08:27:52;5.40;;;0.20;;
46941;SDS011;32676;52.630;4.896;2024-03-29T08:30:23;2.30;;;0.20;;
46941;SDS011;32676;52.630;4.896;2024-03-29T08:32:50;2.22;;;0.40;;
46941;SDS011;32676;52.630;4.896;2024-03-29T08:35:17;1.95;;;0.40;;
46941;SDS011;32676;52.630;4.896;2024-03-29T08:37:46;1.95;;;0.30;;
46941;SDS011;32676;52.630;4.896;2024-03-29T08:40:15;1.70;;;0.30;;
46941;SDS011;32676;52.630;4.896;2024-03-29T08:42:41;2.75;;;0.35;;
46941;SDS011;32676;52.630;4.896;2024-03-29T08:45:08;3.15;;;0.32;;
46941;SDS011;32676;52.630;4.896;2024-03-29T08:47:35;1.85;;;0.20;;
46941;SDS011;32676;52.630;4.896;2024-03-29T08:50:01;1.63;;;0.22;;
46941;SDS011;32676;52.630;4.896;2024-03-29T08:52:29;2.53;;;0.40;;
46941;SDS011;32676;52.630;4.896;2024-03-29T08:54:57;2.88;;;0.98;;
46941;SDS011;32676;52.630;4.896;2024-03-29T08:57:24;2.05;;;0.20;;
46941;SDS011;32676;52.630;4.896;2024-03-29T08:59:50;2.85;;;0.30;;
46941;SDS011;32676;52.630;4.896;2024-03-29T09:02:17;1.58;;;0.35;;
46941;SDS011;32676;52.630;4.896;2024-03-29T09:04:44;6.22;;;0.30;;
46941;SDS011;32676;52.630;4.896;2024-03-29T09:07:10;6.47;;;0.30;;
46941;SDS011;32676;52.630;4.896;2024-03-29T09:09:37;4.47;;;0.57;;
46941;SDS011;32676;52.630;4.896;2024-03-29T09:12:07;2.28;;;0.38;;
46941;SDS011;32676;52.630;4.896;2024-03-29T09:14:34;3.22;;;0.40;;
46941;SDS011;32676;52.630;4.896;2024-03-29T09:17:01;2.40;;;0.30;;
46941;SDS011;32676;52.630;4.896;2024-03-29T09:19:28;3.05;;;0.65;;
46941;SDS011;32676;52.630;4.896;2024-03-29T09:21:56;0.93;;;0.28;;
46941;SDS011;32676;52.630;4.896;2024-03-29T09:24:22;2.53;;;0.40;;
46941;SDS011;32676;52.630;4.896;2024-03-29T09:26:51;2.58;;;0.30;;
46941;SDS011;32676;52.630;4.896;2024-03-29T09:29:19;2.17;;;0.50;;
46941;SDS011;32676;52.630;4.896;2024-03-29T09:31:46;1.42;;;0.28;;
46941;SDS011;32676;52.630;4.896;2024-03-29T09:34:13;1.33;;;0.45;;
46941;SDS011;32676;52.630;4.896;2024-03-29T09:36:39;0.98;;;0.35;;
46941;SDS011;32676;52.630;4.896;2024-03-29T09:39:06;5.93;;;0.50;;
46941;SDS011;32676;52.630;4.896;2024-03-29T09:41:33;2.42;;;0.55;;
46941;SDS011;32676;52.630;4.896;2024-03-29T09:44:02;2.30;;;0.70;;
46941;SDS011;32676;52.630;4.896;2024-03-29T09:46:32;6.15;;;0.80;;
46941;SDS011;32676;52.630;4.896;2024-03-29T09:48:59;2.08;;;0.60;;
46941;SDS011;32676;52.630;4.896;2024-03-29T09:51:28;3.00;;;0.63;;
46941;SDS011;32676;52.630;4.896;2024-03-29T09:53:55;3.90;;;0.57;;
46941;SDS011;32676;52.630;4.896;2024-03-29T09:56:25;5.30;;;0.85;;
46941;SDS011;32676;52.630;4.896;2024-03-29T09:58:52;2.42;;;0.65;;
46941;SDS011;32676;52.630;4.896;2024-03-29T10:01:19;3.70;;;0.75;;
46941;SDS011;32676;52.630;4.896;2024-03-29T10:03:49;5.50;;;0.68;;
46941;SDS011;32676;52.630;4.896;2024-03-29T10:06:16;5.80;;;1.85;;
46941;SDS011;32676;52.630;4.896;2024-03-29T10:08:45;1.73;;;0.40;;
46941;SDS011;32676;52.630;4.896;2024-03-29T10:11:13;6.05;;;0.60;;
46941;SDS011;32676;52.630;4.896;2024-03-29T10:13:41;4.20;;;0.40;;
46941;SDS011;32676;52.630;4.896;2024-03-29T10:16:10;2.00;;;0.73;;
46941;SDS011;32676;52.630;4.896;2024-03-29T10:18:37;2.67;;;0.60;;
46941;SDS011;32676;52.630;4.896;2024-03-29T10:21:08;3.97;;;0.90;;
46941;SDS011;32676;52.630;4.896;2024-03-29T10:23:35;7.10;;;1.33;;
46941;SDS011;32676;52.630;4.896;2024-03-29T10:26:02;3.47;;;0.98;;
46941;SDS011;32676;52.630;4.896;2024-03-29T10:28:30;3.33;;;0.70;;
46941;SDS011;32676;52.630;4.896;2024-03-29T10:30:58;4.43;;;0.80;;
46941;SDS011;32676;52.630;4.896;2024-03-29T10:33:27;6.00;;;0.70;;
46941;SDS011;32676;52.630;4.896;2024-03-29T10:35:54;6.97;;;1.10;;
46941;SDS011;32676;52.630;4.896;2024-03-29T10:38:24;1.60;;;0.47;;
46941;SDS011;32676;52.630;4.896;2024-03-29T10:40:51;5.32;;;0.65;;
46941;SDS011;32676;52.630;4.896;2024-03-29T10:43:18;2.45;;;0.98;;
46941;SDS011;32676;52.630;4.896;2024-03-29T10:45:46;2.42;;;0.60;;
46941;SDS011;32676;52.630;4.896;2024-03-29T10:48:14;1.08;;;0.40;;
46941;SDS011;32676;52.630;4.896;2024-03-29T10:50:42;2.60;;;0.60;;
46941;SDS011;32676;52.630;4.896;2024-03-29T10:53:09;3.33;;;0.52;;
46941;SDS011;32676;52.630;4.896;2024-03-29T10:55:38;3.70;;;0.88;;
46941;SDS011;32676;52.630;4.896;2024-03-29T10:58:05;2.03;;;0.63;;
46941;SDS011;32676;52.630;4.896;2024-03-29T11:00:32;2.55;;;0.60;;
46941;SDS011;32676;52.630;4.896;2024-03-29T11:03:05;2.42;;;0.45;;
46941;SDS011;32676;52.630;4.896;2024-03-29T11:05:41;4.07;;;0.60;;
46941;SDS011;32676;52.630;4.896;2024-03-29T11:08:13;1.98;;;0.52;;
46941;SDS011;32676;52.630;4.896;2024-03-29T11:10:45;4.82;;;0.60;;
46941;SDS011;32676;52.630;4.896;2024-03-29T11:13:17;2.10;;;0.47;;
46941;SDS011;32676;52.630;4.896;2024-03-29T11:15:48;1.83;;;0.40;;
46941;SDS011;32676;52.630;4.896;2024-03-29T11:18:16;3.45;;;0.40;;
46941;SDS011;32676;52.630;4.896;2024-03-29T11:20:44;3.55;;;0.43;;
46941;SDS011;32676;52.630;4.896;2024-03-29T11:23:16;1.83;;;0.50;;
46941;SDS011;32676;52.630;4.896;2024-03-29T11:25:46;2.30;;;0.52;;
46941;SDS011;32676;52.630;4.896;2024-03-29T11:28:15;1.02;;;0.20;;
46941;SDS011;32676;52.630;4.896;2024-03-29T11:30:51;3.83;;;0.50;;
46941;SDS011;32676;52.630;4.896;2024-03-29T11:33:25;3.83;;;0.43;;
46941;SDS011;32676;52.630;4.896;2024-03-29T11:35:56;5.30;;;0.40;;
46941;SDS011;32676;52.630;4.896;2024-03-29T11:38:33;0.20;;;0.10;;
46941;SDS011;32676;52.630;4.896;2024-03-29T11:41:03;0.32;;;0.13;;
46941;SDS011;32676;52.630;4.896;2024-03-29T11:43:30;0.98;;;0.30;;
46941;SDS011;32676;52.630;4.896;2024-03-29T11:45:57;3.72;;;0.30;;
46941;SDS011;32676;52.630;4.896;2024-03-29T11:48:26;2.50;;;0.20;;
46941;SDS011;32676;52.630;4.896;2024-03-29T11:50:54;0.82;;;0.20;;
46941;SDS011;32676;52.630;4.896;2024-03-29T11:53:21;0.70;;;0.30;;
46941;SDS011;32676;52.630;4.896;2024-03-29T11:55:47;2.40;;;0.30;;
46941;SDS011;32676;52.630;4.896;2024-03-29T11:58:20;1.70;;;0.55;;
46941;SDS011;32676;52.630;4.896;2024-03-29T12:00:47;1.63;;;0.30;;
46941;SDS011;32676;52.630;4.896;2024-03-29T12:03:14;3.08;;;0.38;;
46941;SDS011;32676;52.630;4.896;2024-03-29T12:05:41;1.70;;;0.30;;
46941;SDS011;32676;52.630;4.896;2024-03-29T12:08:08;1.00;;;0.35;;
46941;SDS011;32676;52.630;4.896;2024-03-29T12:10:35;1.88;;;0.30;;
46941;SDS011;32676;52.630;4.896;2024-03-29T12:13:02;2.67;;;0.60;;
46941;SDS011;32676;52.630;4.896;2024-03-29T12:15:30;3.90;;;0.50;;
46941;SDS011;32676;52.630;4.896;2024-03-29T12:17:58;1.75;;;0.50;;
46941;SDS011;32676;52.630;4.896;2024-03-29T12:20:26;4.65;;;1.05;;
46941;SDS011;32676;52.630;4.896;2024-03-29T12:22:55;7.07;;;1.08;;
46941;SDS011;32676;52.630;4.896;2024-03-29T12:25:22;6.32;;;0.88;;
46941;SDS011;32676;52.630;4.896;2024-03-29T12:27:49;2.38;;;0.75;;
46941;SDS011;32676;52.630;4.896;2024-03-29T12:30:15;3.15;;;0.90;;
46941;SDS011;32676;52.630;4.896;2024-03-29T12:32:45;5.57;;;0.80;;
46941;SDS011;32676;52.630;4.896;2024-03-29T12:35:12;2.85;;;1.08;;
46941;SDS011;32676;52.630;4.896;2024-03-29T12:37:47;4.00;;;0.82;;
46941;SDS011;32676;52.630;4.896;2024-03-29T12:40:15;6.07;;;1.42;;
46941;SDS011;32676;52.630;4.896;2024-03-29T12:42:46;1.92;;;0.70;;
46941;SDS011;32676;52.630;4.896;2024-03-29T12:45:13;3.47;;;1.85;;
46941;SDS011;32676;52.630;4.896;2024-03-29T12:47:40;3.65;;;0.50;;
46941;SDS011;32676;52.630;4.896;2024-03-29T12:50:08;3.50;;;1.00;;
46941;SDS011;32676;52.630;4.896;2024-03-29T12:52:39;2.17;;;0.80;;
46941;SDS011;32676;52.630;4.896;2024-03-29T12:55:07;2.60;;;0.70;;
46941;SDS011;32676;52.630;4.896;2024-03-29T12:57:35;2.72;;;0.75;;
46941;SDS011;32676;52.630;4.896;2024-03-29T13:00:02;5.30;;;0.70;;
46941;SDS011;32676;52.630;4.896;2024-03-29T13:02:33;4.15;;;0.43;;
46941;SDS011;32676;52.630;4.896;2024-03-29T13:05:00;2.65;;;0.70;;
46941;SDS011;32676;52.630;4.896;2024-03-29T13:07:29;3.78;;;0.88;;
46941;SDS011;32676;52.630;4.896;2024-03-29T13:09:55;3.08;;;0.60;;
46941;SDS011;32676;52.630;4.896;2024-03-29T13:12:23;2.55;;;0.47;;
46941;SDS011;32676;52.630;4.896;2024-03-29T13:14:50;4.32;;;0.90;;
46941;SDS011;32676;52.630;4.896;2024-03-29T13:17:17;1.85;;;0.50;;
46941;SDS011;32676;52.630;4.896;2024-03-29T13:19:44;1.35;;;0.55;;
46941;SDS011;32676;52.630;4.896;2024-03-29T13:22:10;3.20;;;1.02;;
46941;SDS011;32676;52.630;4.896;2024-03-29T13:24:38;3.08;;;0.80;;
46941;SDS011;32676;52.630;4.896;2024-03-29T13:27:05;1.80;;;0.75;;
46941;SDS011;32676;52.630;4.896;2024-03-29T13:29:31;3.83;;;1.23;;
46941;SDS011;32676;52.630;4.896;2024-03-29T13:31:58;4.43;;;1.05;;
46941;SDS011;32676;52.630;4.896;2024-03-29T13:34:25;5.55;;;0.82;;
46941;SDS011;32676;52.630;4.896;2024-03-29T13:36:51;4.20;;;0.90;;
46941;SDS011;32676;52.630;4.896;2024-03-29T13:39:18;2.35;;;0.70;;
46941;SDS011;32676;52.630;4.896;2024-03-29T13:41:48;2.58;;;1.08;;
46941;SDS011;32676;52.630;4.896;2024-03-29T13:44:15;5.30;;;0.88;;
46941;SDS011;32676;52.630;4.896;2024-03-29T13:46:42;3.95;;;1.15;;
46941;SDS011;32676;52.630;4.896;2024-03-29T13:49:09;4.00;;;1.08;;
46941;SDS011;32676;52.630;4.896;2024-03-29T13:51:37;6.25;;;1.00;;
46941;SDS011;32676;52.630;4.896;2024-03-29T13:54:03;2.35;;;0.88;;
46941;SDS011;32676;52.630;4.896;2024-03-29T13:56:30;5.50;;;0.75;;
46941;SDS011;32676;52.630;4.896;2024-03-29T13:58:58;4.00;;;1.20;;
46941;SDS011;32676;52.630;4.896;2024-03-29T14:01:25;6.40;;;1.77;;
46941;SDS011;32676;52.630;4.896;2024-03-29T14:03:51;4.85;;;1.10;;
46941;SDS011;32676;52.630;4.896;2024-03-29T14:06:18;6.20;;;1.55;;
46941;SDS011;32676;52.630;4.896;2024-03-29T14:08:45;4.10;;;1.70;;
46941;SDS011;32676;52.630;4.896;2024-03-29T14:11:11;4.10;;;1.50;;
46941;SDS011;32676;52.630;4.896;2024-03-29T14:13:39;6.13;;;2.05;;
46941;SDS011;32676;52.630;4.896;2024-03-29T14:16:07;7.35;;;1.40;;
46941;SDS011;32676;52.630;4.896;2024-03-29T14:18:33;5.45;;;1.02;;
46941;SDS011;32676;52.630;4.896;2024-03-29T14:21:02;3.92;;;1.52;;
46941;SDS011;32676;52.630;4.896;2024-03-29T14:23:29;3.83;;;1.60;;
46941;SDS011;32676;52.630;4.896;2024-03-29T14:25:55;5.20;;;1.95;;
46941;SDS011;32676;52.630;4.896;2024-03-29T14:28:22;4.80;;;1.38;;
46941;SDS011;32676;52.630;4.896;2024-03-29T14:30:48;3.13;;;1.60;;
46941;SDS011;32676;52.630;4.896;2024-03-29T14:33:16;3.40;;;1.10;;
46941;SDS011;32676;52.630;4.896;2024-03-29T14:35:43;5.82;;;1.25;;
46941;SDS011;32676;52.630;4.896;2024-03-29T14:38:11;5.32;;;1.00;;
46941;SDS011;32676;52.630;4.896;2024-03-29T14:40:39;2.83;;;0.70;;
46941;SDS011;32676;52.630;4.896;2024-03-29T14:43:05;2.33;;;0.98;;
46941;SDS011;32676;52.630;4.896;2024-03-29T14:45:32;8.90;;;1.17;;